TJNR/NRR METAR and TAF weather

Enter ICAO airport designator
Station Type Date Time Source
TJNR METAR 2019/12/16 02:53 UTC NOAA

TJNR 160253Z AUTO 08007KT 10SM SCT034 26/23 A3009 RMK AO2 SLP189 6//// T02610228 50008 PNO $


Station Type Date Time Source
TJNR Decoded METAR 2019/12/16 02:53 UTC NOAA

ROOSEVELT ROADS PUERTO RICO, PR, United States (TJNR) 18-15N 65-38W 10M
Dec 15, 2019 - 09:53 PM EST / 2019.12.16 0253 UTC
Wind: from the E (080 degrees) at 8 MPH (7 KT):0
Visibility: 10 mile(s):0
Sky conditions: partly cloudy
Temperature: 79.0 F (26.1 C)
Dew Point: 73.0 F (22.8 C)
Relative Humidity: 82%
Pressure (altimeter): 30.09 in. Hg (1018 hPa)
Pressure tendency: 0.02 inches (0.8 hPa) higher than three hours ago
ob: TJNR 160253Z AUTO 08007KT 10SM SCT034 26/23 A3009 RMK AO2 SLP189 6//// T02610228 50008 PNO
cycle: 3

Station Type Date Time Source
TJNR TAF UTC NOAA

Error!

Example: see airport list